sensor_id;sensor_type;location;lat;lon;timestamp;P1;durP1;ratioP1;P2;durP2;ratioP2
9094;SDS011;4583;49.796;9.902;2023-11-18T00:09:30;20.63;;;11.43;;
9094;SDS011;4583;49.796;9.902;2023-11-18T00:19:32;18.27;;;10.90;;
9094;SDS011;4583;49.796;9.902;2023-11-18T00:29:38;13.67;;;9.50;;
9094;SDS011;4583;49.796;9.902;2023-11-18T00:39:40;11.87;;;8.30;;
9094;SDS011;4583;49.796;9.902;2023-11-18T00:49:42;15.40;;;8.73;;
9094;SDS011;4583;49.796;9.902;2023-11-18T00:59:44;13.80;;;8.47;;
9094;SDS011;4583;49.796;9.902;2023-11-18T01:09:46;21.37;;;8.80;;
9094;SDS011;4583;49.796;9.902;2023-11-18T01:19:50;33.00;;;9.57;;
9094;SDS011;4583;49.796;9.902;2023-11-18T01:29:52;85.60;;;10.37;;
9094;SDS011;4583;49.796;9.902;2023-11-18T01:39:54;53.10;;;10.37;;
9094;SDS011;4583;49.796;9.902;2023-11-18T01:49:56;41.13;;;10.10;;
9094;SDS011;4583;49.796;9.902;2023-11-18T01:59:59;55.90;;;9.73;;
9094;SDS011;4583;49.796;9.902;2023-11-18T02:10:02;30.60;;;8.03;;
9094;SDS011;4583;49.796;9.902;2023-11-18T02:20:04;64.90;;;8.33;;
9094;SDS011;4583;49.796;9.902;2023-11-18T02:30:14;41.23;;;8.57;;
9094;SDS011;4583;49.796;9.902;2023-11-18T02:40:19;42.43;;;8.10;;
9094;SDS011;4583;49.796;9.902;2023-11-18T02:50:22;80.13;;;8.73;;
9094;SDS011;4583;49.796;9.902;2023-11-18T03:00:24;15.50;;;7.53;;
9094;SDS011;4583;49.796;9.902;2023-11-18T03:10:26;13.53;;;6.07;;
9094;SDS011;4583;49.796;9.902;2023-11-18T03:20:31;8.40;;;5.90;;
9094;SDS011;4583;49.796;9.902;2023-11-18T03:30:35;7.50;;;5.17;;
9094;SDS011;4583;49.796;9.902;2023-11-18T03:40:40;26.40;;;5.77;;
9094;SDS011;4583;49.796;9.902;2023-11-18T03:50:42;17.07;;;6.30;;
9094;SDS011;4583;49.796;9.902;2023-11-18T04:00:45;24.10;;;6.13;;
9094;SDS011;4583;49.796;9.902;2023-11-18T04:10:47;51.50;;;7.23;;
9094;SDS011;4583;49.796;9.902;2023-11-18T04:20:49;12.60;;;6.10;;
9094;SDS011;4583;49.796;9.902;2023-11-18T04:30:52;23.70;;;6.60;;
9094;SDS011;4583;49.796;9.902;2023-11-18T04:40:54;9.33;;;5.97;;
9094;SDS011;4583;49.796;9.902;2023-11-18T04:50:57;43.33;;;6.93;;
9094;SDS011;4583;49.796;9.902;2023-11-18T05:00:59;21.97;;;6.30;;
9094;SDS011;4583;49.796;9.902;2023-11-18T05:14:42;12.20;;;6.43;;
9094;SDS011;4583;49.796;9.902;2023-11-18T05:24:44;46.37;;;6.27;;
9094;SDS011;4583;49.796;9.902;2023-11-18T05:34:46;7.43;;;4.60;;
9094;SDS011;4583;49.796;9.902;2023-11-18T05:44:48;9.63;;;5.63;;
9094;SDS011;4583;49.796;9.902;2023-11-18T05:54:59;14.67;;;6.40;;
9094;SDS011;4583;49.796;9.902;2023-11-18T06:05:01;40.43;;;6.57;;
9094;SDS011;4583;49.796;9.902;2023-11-18T06:15:05;12.80;;;6.20;;
9094;SDS011;4583;49.796;9.902;2023-11-18T06:25:10;46.33;;;6.57;;
9094;SDS011;4583;49.796;9.902;2023-11-18T06:35:14;27.03;;;5.93;;
9094;SDS011;4583;49.796;9.902;2023-11-18T06:45:16;31.20;;;6.03;;
9094;SDS011;4583;49.796;9.902;2023-11-18T06:55:18;10.93;;;5.60;;
9094;SDS011;4583;49.796;9.902;2023-11-18T07:05:20;11.17;;;5.90;;
9094;SDS011;4583;49.796;9.902;2023-11-18T07:15:25;12.40;;;6.83;;
9094;SDS011;4583;49.796;9.902;2023-11-18T07:25:27;18.80;;;6.83;;
9094;SDS011;4583;49.796;9.902;2023-11-18T07:35:29;23.00;;;7.40;;
9094;SDS011;4583;49.796;9.902;2023-11-18T07:45:35;18.93;;;7.03;;
9094;SDS011;4583;49.796;9.902;2023-11-18T07:55:40;17.67;;;6.80;;
9094;SDS011;4583;49.796;9.902;2023-11-18T08:05:43;21.87;;;7.53;;
9094;SDS011;4583;49.796;9.902;2023-11-18T08:15:46;14.20;;;7.17;;
9094;SDS011;4583;49.796;9.902;2023-11-18T08:25:48;35.27;;;8.83;;
9094;SDS011;4583;49.796;9.902;2023-11-18T08:35:52;21.53;;;9.07;;
9094;SDS011;4583;49.796;9.902;2023-11-18T08:45:54;16.17;;;8.43;;
9094;SDS011;4583;49.796;9.902;2023-11-18T08:55:57;15.23;;;7.30;;
9094;SDS011;4583;49.796;9.902;2023-11-18T09:06:01;16.30;;;8.47;;
9094;SDS011;4583;49.796;9.902;2023-11-18T09:16:07;14.97;;;8.77;;
9094;SDS011;4583;49.796;9.902;2023-11-18T09:26:12;14.57;;;8.03;;
9094;SDS011;4583;49.796;9.902;2023-11-18T09:36:15;15.40;;;8.40;;
9094;SDS011;4583;49.796;9.902;2023-11-18T09:46:22;13.93;;;8.53;;
9094;SDS011;4583;49.796;9.902;2023-11-18T09:56:30;13.60;;;8.60;;
9094;SDS011;4583;49.796;9.902;2023-11-18T10:06:58;17.23;;;9.33;;
9094;SDS011;4583;49.796;9.902;2023-11-18T10:17:06;18.80;;;9.93;;
9094;SDS011;4583;49.796;9.902;2023-11-18T10:27:09;20.83;;;11.23;;
9094;SDS011;4583;49.796;9.902;2023-11-18T10:37:11;17.77;;;10.83;;
9094;SDS011;4583;49.796;9.902;2023-11-18T10:47:13;21.20;;;11.90;;
9094;SDS011;4583;49.796;9.902;2023-11-18T10:57:18;18.67;;;11.37;;
9094;SDS011;4583;49.796;9.902;2023-11-18T11:07:20;20.40;;;10.83;;
9094;SDS011;4583;49.796;9.902;2023-11-18T11:17:25;24.60;;;11.30;;
9094;SDS011;4583;49.796;9.902;2023-11-18T11:27:33;22.03;;;12.10;;
9094;SDS011;4583;49.796;9.902;2023-11-18T11:37:41;23.57;;;12.17;;
9094;SDS011;4583;49.796;9.902;2023-11-18T11:47:43;21.90;;;12.43;;
9094;SDS011;4583;49.796;9.902;2023-11-18T11:57:51;22.73;;;12.93;;
9094;SDS011;4583;49.796;9.902;2023-11-18T12:07:59;20.57;;;12.60;;
9094;SDS011;4583;49.796;9.902;2023-11-18T12:28:08;20.00;;;12.93;;
9094;SDS011;4583;49.796;9.902;2023-11-18T12:48:25;21.07;;;13.90;;
9094;SDS011;4583;49.796;9.902;2023-11-18T12:58:33;19.23;;;12.80;;
9094;SDS011;4583;49.796;9.902;2023-11-18T13:08:35;22.03;;;13.10;;
9094;SDS011;4583;49.796;9.902;2023-11-18T13:18:41;18.37;;;11.97;;
9094;SDS011;4583;49.796;9.902;2023-11-18T13:28:48;20.67;;;13.87;;
9094;SDS011;4583;49.796;9.902;2023-11-18T13:38:50;21.90;;;13.70;;
9094;SDS011;4583;49.796;9.902;2023-11-18T13:48:52;23.83;;;14.70;;
9094;SDS011;4583;49.796;9.902;2023-11-18T13:58:55;24.73;;;15.07;;
9094;SDS011;4583;49.796;9.902;2023-11-18T14:08:57;25.13;;;15.27;;
9094;SDS011;4583;49.796;9.902;2023-11-18T14:19:00;23.17;;;14.97;;
9094;SDS011;4583;49.796;9.902;2023-11-18T14:29:02;26.60;;;16.17;;
9094;SDS011;4583;49.796;9.902;2023-11-18T14:39:04;25.70;;;15.77;;
9094;SDS011;4583;49.796;9.902;2023-11-18T14:49:10;25.53;;;16.57;;
9094;SDS011;4583;49.796;9.902;2023-11-18T14:59:12;24.97;;;16.80;;
9094;SDS011;4583;49.796;9.902;2023-11-18T15:09:14;29.07;;;17.27;;
9094;SDS011;4583;49.796;9.902;2023-11-18T15:19:16;28.63;;;17.20;;
9094;SDS011;4583;49.796;9.902;2023-11-18T15:29:19;35.90;;;18.30;;
9094;SDS011;4583;49.796;9.902;2023-11-18T15:39:21;29.67;;;17.30;;
9094;SDS011;4583;49.796;9.902;2023-11-18T15:49:24;26.03;;;16.10;;
9094;SDS011;4583;49.796;9.902;2023-11-18T15:59:27;27.20;;;16.07;;
9094;SDS011;4583;49.796;9.902;2023-11-18T16:09:29;27.17;;;16.77;;
9094;SDS011;4583;49.796;9.902;2023-11-18T16:19:30;28.90;;;17.97;;
9094;SDS011;4583;49.796;9.902;2023-11-18T16:29:33;30.00;;;18.70;;
9094;SDS011;4583;49.796;9.902;2023-11-18T16:39:35;17.63;;;11.27;;
9094;SDS011;4583;49.796;9.902;2023-11-18T16:49:37;6.60;;;4.00;;
9094;SDS011;4583;49.796;9.902;2023-11-18T16:59:39;7.07;;;4.70;;
9094;SDS011;4583;49.796;9.902;2023-11-18T17:09:41;5.83;;;2.00;;
9094;SDS011;4583;49.796;9.902;2023-11-18T17:19:43;3.73;;;2.20;;
9094;SDS011;4583;49.796;9.902;2023-11-18T17:29:45;4.50;;;2.40;;
9094;SDS011;4583;49.796;9.902;2023-11-18T17:39:47;3.03;;;1.70;;
9094;SDS011;4583;49.796;9.902;2023-11-18T17:49:49;5.60;;;2.50;;
9094;SDS011;4583;49.796;9.902;2023-11-18T17:59:51;2.27;;;1.70;;
9094;SDS011;4583;49.796;9.902;2023-11-18T18:09:54;5.33;;;2.50;;
9094;SDS011;4583;49.796;9.902;2023-11-18T18:19:55;3.70;;;2.07;;
9094;SDS011;4583;49.796;9.902;2023-11-18T18:29:58;7.03;;;2.83;;
9094;SDS011;4583;49.796;9.902;2023-11-18T18:40:00;2.80;;;2.17;;
9094;SDS011;4583;49.796;9.902;2023-11-18T18:50:02;6.07;;;2.73;;
9094;SDS011;4583;49.796;9.902;2023-11-18T19:00:06;5.57;;;3.10;;
9094;SDS011;4583;49.796;9.902;2023-11-18T19:10:13;5.57;;;3.33;;
9094;SDS011;4583;49.796;9.902;2023-11-18T19:20:15;9.43;;;3.17;;
9094;SDS011;4583;49.796;9.902;2023-11-18T19:30:17;4.83;;;3.07;;
9094;SDS011;4583;49.796;9.902;2023-11-18T19:40:19;4.50;;;3.10;;
9094;SDS011;4583;49.796;9.902;2023-11-18T19:50:23;6.67;;;3.40;;
9094;SDS011;4583;49.796;9.902;2023-11-18T20:00:28;6.90;;;4.43;;
9094;SDS011;4583;49.796;9.902;2023-11-18T20:14:04;8.50;;;4.30;;
9094;SDS011;4583;49.796;9.902;2023-11-18T20:24:07;6.00;;;4.00;;
9094;SDS011;4583;49.796;9.902;2023-11-18T20:34:10;5.40;;;3.80;;
9094;SDS011;4583;49.796;9.902;2023-11-18T20:44:13;5.93;;;4.07;;
9094;SDS011;4583;49.796;9.902;2023-11-18T20:54:15;7.03;;;4.20;;
9094;SDS011;4583;49.796;9.902;2023-11-18T21:04:17;6.67;;;3.77;;
9094;SDS011;4583;49.796;9.902;2023-11-18T21:14:20;6.13;;;3.40;;
9094;SDS011;4583;49.796;9.902;2023-11-18T21:24:23;5.30;;;3.60;;
9094;SDS011;4583;49.796;9.902;2023-11-18T21:34:25;6.63;;;4.03;;
9094;SDS011;4583;49.796;9.902;2023-11-18T21:44:27;5.63;;;3.90;;
9094;SDS011;4583;49.796;9.902;2023-11-18T21:54:29;8.17;;;3.97;;
9094;SDS011;4583;49.796;9.902;2023-11-18T22:04:32;4.67;;;3.80;;
9094;SDS011;4583;49.796;9.902;2023-11-18T22:14:34;7.37;;;4.00;;
9094;SDS011;4583;49.796;9.902;2023-11-18T22:24:36;4.73;;;3.83;;
9094;SDS011;4583;49.796;9.902;2023-11-18T22:34:38;6.07;;;4.00;;
9094;SDS011;4583;49.796;9.902;2023-11-18T22:44:40;8.10;;;4.20;;
9094;SDS011;4583;49.796;9.902;2023-11-18T22:54:49;5.57;;;3.73;;
9094;SDS011;4583;49.796;9.902;2023-11-18T23:04:51;6.30;;;4.33;;
9094;SDS011;4583;49.796;9.902;2023-11-18T23:14:53;4.67;;;3.77;;
9094;SDS011;4583;49.796;9.902;2023-11-18T23:24:55;5.73;;;3.80;;
9094;SDS011;4583;49.796;9.902;2023-11-18T23:34:58;6.10;;;3.80;;
9094;SDS011;4583;49.796;9.902;2023-11-18T23:45:02;5.30;;;3.47;;
9094;SDS011;4583;49.796;9.902;2023-11-18T23:55:06;6.00;;;4.00;;
